sensor_id;sensor_type;location;lat;lon;timestamp;temperature;humidity
43043;DHT22;28667;50.758;6.096;2023-07-09T00:02:22;22.40;99.90
43043;DHT22;28667;50.758;6.096;2023-07-09T00:04:48;22.40;99.90
43043;DHT22;28667;50.758;6.096;2023-07-09T00:07:24;22.40;99.90
43043;DHT22;28667;50.758;6.096;2023-07-09T00:09:51;22.30;99.90
43043;DHT22;28667;50.758;6.096;2023-07-09T00:12:18;22.30;99.90
43043;DHT22;28667;50.758;6.096;2023-07-09T00:14:44;22.20;99.90
43043;DHT22;28667;50.758;6.096;2023-07-09T00:17:11;22.20;99.90
43043;DHT22;28667;50.758;6.096;2023-07-09T00:19:38;22.20;99.90
43043;DHT22;28667;50.758;6.096;2023-07-09T00:22:13;22.20;99.90
43043;DHT22;28667;50.758;6.096;2023-07-09T00:24:43;22.10;99.90
43043;DHT22;28667;50.758;6.096;2023-07-09T00:27:11;22.10;99.90
43043;DHT22;28667;50.758;6.096;2023-07-09T00:29:37;22.00;99.90
43043;DHT22;28667;50.758;6.096;2023-07-09T00:32:03;22.00;99.90
43043;DHT22;28667;50.758;6.096;2023-07-09T00:34:29;22.00;99.90
43043;DHT22;28667;50.758;6.096;2023-07-09T00:36:54;21.90;99.90
43043;DHT22;28667;50.758;6.096;2023-07-09T00:39:22;21.90;99.90
43043;DHT22;28667;50.758;6.096;2023-07-09T00:41:49;21.80;99.90
43043;DHT22;28667;50.758;6.096;2023-07-09T00:44:31;21.80;99.90
43043;DHT22;28667;50.758;6.096;2023-07-09T00:49:29;21.70;99.90
43043;DHT22;28667;50.758;6.096;2023-07-09T00:51:57;21.70;99.90
43043;DHT22;28667;50.758;6.096;2023-07-09T00:54:36;21.70;99.90
43043;DHT22;28667;50.758;6.096;2023-07-09T00:57:14;21.70;99.90
43043;DHT22;28667;50.758;6.096;2023-07-09T00:59:45;21.60;99.90
43043;DHT22;28667;50.758;6.096;2023-07-09T01:02:14;21.60;99.90
43043;DHT22;28667;50.758;6.096;2023-07-09T01:04:41;21.60;99.90
43043;DHT22;28667;50.758;6.096;2023-07-09T01:07:08;21.50;99.90
43043;DHT22;28667;50.758;6.096;2023-07-09T01:09:34;21.50;99.90
43043;DHT22;28667;50.758;6.096;2023-07-09T01:12:08;21.50;99.90
43043;DHT22;28667;50.758;6.096;2023-07-09T01:14:35;21.40;99.90
43043;DHT22;28667;50.758;6.096;2023-07-09T01:17:06;21.40;99.90
43043;DHT22;28667;50.758;6.096;2023-07-09T01:19:40;21.30;99.90
43043;DHT22;28667;50.758;6.096;2023-07-09T01:22:20;21.30;99.90
43043;DHT22;28667;50.758;6.096;2023-07-09T01:25:02;21.20;99.90
43043;DHT22;28667;50.758;6.096;2023-07-09T01:27:32;21.20;99.90
43043;DHT22;28667;50.758;6.096;2023-07-09T01:30:00;21.20;99.90
43043;DHT22;28667;50.758;6.096;2023-07-09T01:32:26;21.20;99.90
43043;DHT22;28667;50.758;6.096;2023-07-09T01:34:59;21.10;99.90
43043;DHT22;28667;50.758;6.096;2023-07-09T01:37:31;21.10;99.90
43043;DHT22;28667;50.758;6.096;2023-07-09T01:39:57;21.10;99.90
43043;DHT22;28667;50.758;6.096;2023-07-09T01:42:25;21.20;99.90
43043;DHT22;28667;50.758;6.096;2023-07-09T01:44:53;21.10;99.90
43043;DHT22;28667;50.758;6.096;2023-07-09T01:47:19;21.00;99.90
43043;DHT22;28667;50.758;6.096;2023-07-09T01:49:45;21.00;99.90
43043;DHT22;28667;50.758;6.096;2023-07-09T01:52:14;21.00;99.90
43043;DHT22;28667;50.758;6.096;2023-07-09T01:54:42;20.90;99.90
43043;DHT22;28667;50.758;6.096;2023-07-09T01:57:19;20.90;99.90
43043;DHT22;28667;50.758;6.096;2023-07-09T01:59:49;21.00;99.90
43043;DHT22;28667;50.758;6.096;2023-07-09T02:02:15;21.00;99.90
43043;DHT22;28667;50.758;6.096;2023-07-09T02:04:41;21.00;99.90
43043;DHT22;28667;50.758;6.096;2023-07-09T02:07:08;21.00;99.90
43043;DHT22;28667;50.758;6.096;2023-07-09T02:09:35;21.00;99.90
43043;DHT22;28667;50.758;6.096;2023-07-09T02:12:01;21.00;99.90
43043;DHT22;28667;50.758;6.096;2023-07-09T02:14:29;21.00;99.90
43043;DHT22;28667;50.758;6.096;2023-07-09T02:16:55;20.90;99.90
43043;DHT22;28667;50.758;6.096;2023-07-09T02:19:22;21.00;99.90
43043;DHT22;28667;50.758;6.096;2023-07-09T02:21:48;21.00;99.90
43043;DHT22;28667;50.758;6.096;2023-07-09T02:24:14;20.90;99.90
43043;DHT22;28667;50.758;6.096;2023-07-09T02:26:41;21.00;99.90
43043;DHT22;28667;50.758;6.096;2023-07-09T02:29:07;20.90;99.90
43043;DHT22;28667;50.758;6.096;2023-07-09T02:31:33;20.90;99.90
43043;DHT22;28667;50.758;6.096;2023-07-09T02:34:00;20.90;99.90
43043;DHT22;28667;50.758;6.096;2023-07-09T02:36:26;20.90;99.90
43043;DHT22;28667;50.758;6.096;2023-07-09T02:38:51;20.90;99.90
43043;DHT22;28667;50.758;6.096;2023-07-09T02:41:17;20.90;99.90
43043;DHT22;28667;50.758;6.096;2023-07-09T02:43:43;20.90;99.90
43043;DHT22;28667;50.758;6.096;2023-07-09T02:46:09;20.90;99.90
43043;DHT22;28667;50.758;6.096;2023-07-09T02:48:35;20.80;99.90
43043;DHT22;28667;50.758;6.096;2023-07-09T02:51:01;20.80;99.90
43043;DHT22;28667;50.758;6.096;2023-07-09T02:53:27;20.70;99.90
43043;DHT22;28667;50.758;6.096;2023-07-09T02:55:53;20.70;99.90
43043;DHT22;28667;50.758;6.096;2023-07-09T02:58:19;20.70;99.90
43043;DHT22;28667;50.758;6.096;2023-07-09T03:00:49;20.70;99.90
43043;DHT22;28667;50.758;6.096;2023-07-09T03:03:20;20.70;99.90
43043;DHT22;28667;50.758;6.096;2023-07-09T03:05:47;20.60;99.90
43043;DHT22;28667;50.758;6.096;2023-07-09T03:08:13;20.60;99.90
43043;DHT22;28667;50.758;6.096;2023-07-09T03:10:40;20.50;99.90
43043;DHT22;28667;50.758;6.096;2023-07-09T03:13:06;20.50;99.90
43043;DHT22;28667;50.758;6.096;2023-07-09T03:15:32;20.50;99.90
43043;DHT22;28667;50.758;6.096;2023-07-09T03:17:58;20.40;99.90
43043;DHT22;28667;50.758;6.096;2023-07-09T03:20:24;20.30;99.90
43043;DHT22;28667;50.758;6.096;2023-07-09T03:22:50;20.30;99.90
43043;DHT22;28667;50.758;6.096;2023-07-09T03:25:16;20.30;99.90
43043;DHT22;28667;50.758;6.096;2023-07-09T03:27:42;20.20;99.90
43043;DHT22;28667;50.758;6.096;2023-07-09T03:30:08;20.20;99.90
43043;DHT22;28667;50.758;6.096;2023-07-09T03:32:34;20.20;99.90
43043;DHT22;28667;50.758;6.096;2023-07-09T03:34:59;20.20;99.90
43043;DHT22;28667;50.758;6.096;2023-07-09T03:37:25;20.20;99.90
43043;DHT22;28667;50.758;6.096;2023-07-09T03:39:51;20.20;99.90
43043;DHT22;28667;50.758;6.096;2023-07-09T03:42:16;20.20;99.90
43043;DHT22;28667;50.758;6.096;2023-07-09T03:44:42;20.10;99.90
43043;DHT22;28667;50.758;6.096;2023-07-09T03:47:08;20.10;99.90
43043;DHT22;28667;50.758;6.096;2023-07-09T03:49:36;20.10;99.90
43043;DHT22;28667;50.758;6.096;2023-07-09T03:52:01;20.10;99.90
43043;DHT22;28667;50.758;6.096;2023-07-09T03:54:28;20.10;99.90
43043;DHT22;28667;50.758;6.096;2023-07-09T03:56:54;20.10;99.90
43043;DHT22;28667;50.758;6.096;2023-07-09T03:59:19;20.10;99.90
43043;DHT22;28667;50.758;6.096;2023-07-09T04:01:45;20.10;99.90
43043;DHT22;28667;50.758;6.096;2023-07-09T04:04:12;20.10;99.90
43043;DHT22;28667;50.758;6.096;2023-07-09T04:06:38;20.10;99.90
43043;DHT22;28667;50.758;6.096;2023-07-09T04:09:04;20.20;99.90
43043;DHT22;28667;50.758;6.096;2023-07-09T04:11:29;20.20;99.90
43043;DHT22;28667;50.758;6.096;2023-07-09T04:13:55;20.20;99.90
43043;DHT22;28667;50.758;6.096;2023-07-09T04:16:21;20.20;99.90
43043;DHT22;28667;50.758;6.096;2023-07-09T04:18:46;20.20;99.90
43043;DHT22;28667;50.758;6.096;2023-07-09T04:21:12;20.30;99.90
43043;DHT22;28667;50.758;6.096;2023-07-09T04:23:38;20.30;99.90
43043;DHT22;28667;50.758;6.096;2023-07-09T04:26:04;20.30;99.90
43043;DHT22;28667;50.758;6.096;2023-07-09T04:28:30;20.30;99.90
43043;DHT22;28667;50.758;6.096;2023-07-09T04:30:56;20.40;99.90
43043;DHT22;28667;50.758;6.096;2023-07-09T04:33:22;20.40;99.90
43043;DHT22;28667;50.758;6.096;2023-07-09T04:35:48;20.50;99.90
43043;DHT22;28667;50.758;6.096;2023-07-09T04:38:14;20.60;99.90
43043;DHT22;28667;50.758;6.096;2023-07-09T04:40:40;20.60;99.90
43043;DHT22;28667;50.758;6.096;2023-07-09T04:43:06;20.70;99.90
43043;DHT22;28667;50.758;6.096;2023-07-09T04:45:32;20.70;99.90
43043;DHT22;28667;50.758;6.096;2023-07-09T04:47:58;20.80;99.90
43043;DHT22;28667;50.758;6.096;2023-07-09T04:50:24;20.80;99.90
43043;DHT22;28667;50.758;6.096;2023-07-09T04:52:50;20.90;99.90
43043;DHT22;28667;50.758;6.096;2023-07-09T04:55:17;20.90;99.90
43043;DHT22;28667;50.758;6.096;2023-07-09T04:57:45;21.00;99.90
43043;DHT22;28667;50.758;6.096;2023-07-09T05:00:11;21.00;99.90
43043;DHT22;28667;50.758;6.096;2023-07-09T05:02:37;21.10;99.90
43043;DHT22;28667;50.758;6.096;2023-07-09T05:05:03;21.10;99.90
43043;DHT22;28667;50.758;6.096;2023-07-09T05:07:31;21.20;99.90
43043;DHT22;28667;50.758;6.096;2023-07-09T05:09:58;21.30;99.90
43043;DHT22;28667;50.758;6.096;2023-07-09T05:12:26;21.30;99.90
43043;DHT22;28667;50.758;6.096;2023-07-09T05:14:54;21.40;99.90
43043;DHT22;28667;50.758;6.096;2023-07-09T05:17:19;21.50;99.90
43043;DHT22;28667;50.758;6.096;2023-07-09T05:19:45;21.50;99.90
43043;DHT22;28667;50.758;6.096;2023-07-09T05:22:11;21.60;99.90
43043;DHT22;28667;50.758;6.096;2023-07-09T05:24:36;21.70;99.90
43043;DHT22;28667;50.758;6.096;2023-07-09T05:27:03;21.70;99.90
43043;DHT22;28667;50.758;6.096;2023-07-09T05:29:28;21.80;99.90
43043;DHT22;28667;50.758;6.096;2023-07-09T05:31:54;21.90;99.90
43043;DHT22;28667;50.758;6.096;2023-07-09T05:34:20;22.00;99.90
43043;DHT22;28667;50.758;6.096;2023-07-09T05:36:47;22.10;99.90
43043;DHT22;28667;50.758;6.096;2023-07-09T05:39:13;22.20;99.90
43043;DHT22;28667;50.758;6.096;2023-07-09T05:41:38;22.30;99.90
43043;DHT22;28667;50.758;6.096;2023-07-09T05:44:04;22.40;99.90
43043;DHT22;28667;50.758;6.096;2023-07-09T05:46:34;22.50;99.90
43043;DHT22;28667;50.758;6.096;2023-07-09T05:49:02;22.60;99.90
43043;DHT22;28667;50.758;6.096;2023-07-09T05:51:28;22.70;99.90
43043;DHT22;28667;50.758;6.096;2023-07-09T05:53:53;22.80;99.90
43043;DHT22;28667;50.758;6.096;2023-07-09T05:56:19;22.90;99.90
43043;DHT22;28667;50.758;6.096;2023-07-09T05:58:45;23.00;99.90
43043;DHT22;28667;50.758;6.096;2023-07-09T06:01:10;23.20;99.90
43043;DHT22;28667;50.758;6.096;2023-07-09T06:03:36;23.20;99.90
43043;DHT22;28667;50.758;6.096;2023-07-09T06:06:02;23.40;99.90
43043;DHT22;28667;50.758;6.096;2023-07-09T06:08:28;23.50;99.90
43043;DHT22;28667;50.758;6.096;2023-07-09T06:10:59;23.60;99.90
43043;DHT22;28667;50.758;6.096;2023-07-09T06:13:27;23.70;99.90
43043;DHT22;28667;50.758;6.096;2023-07-09T06:15:57;23.80;99.90
43043;DHT22;28667;50.758;6.096;2023-07-09T06:18:23;23.90;99.90
43043;DHT22;28667;50.758;6.096;2023-07-09T06:20:53;24.00;99.90
43043;DHT22;28667;50.758;6.096;2023-07-09T06:23:19;24.20;99.90
43043;DHT22;28667;50.758;6.096;2023-07-09T06:25:46;24.30;99.90
43043;DHT22;28667;50.758;6.096;2023-07-09T06:28:17;24.40;99.90
43043;DHT22;28667;50.758;6.096;2023-07-09T06:30:44;24.50;99.90
43043;DHT22;28667;50.758;6.096;2023-07-09T06:33:11;24.60;99.90
43043;DHT22;28667;50.758;6.096;2023-07-09T06:35:37;24.70;99.90
43043;DHT22;28667;50.758;6.096;2023-07-09T06:38:03;24.80;99.90
43043;DHT22;28667;50.758;6.096;2023-07-09T06:40:29;24.90;99.90
43043;DHT22;28667;50.758;6.096;2023-07-09T06:42:55;25.00;99.90
43043;DHT22;28667;50.758;6.096;2023-07-09T06:45:25;25.10;99.90
43043;DHT22;28667;50.758;6.096;2023-07-09T06:47:51;25.20;99.90
43043;DHT22;28667;50.758;6.096;2023-07-09T06:50:17;25.30;99.90
43043;DHT22;28667;50.758;6.096;2023-07-09T06:52:42;25.40;99.90
43043;DHT22;28667;50.758;6.096;2023-07-09T06:55:09;25.50;99.90
43043;DHT22;28667;50.758;6.096;2023-07-09T06:57:34;25.50;99.90
43043;DHT22;28667;50.758;6.096;2023-07-09T07:00:00;25.60;99.80
43043;DHT22;28667;50.758;6.096;2023-07-09T07:02:26;25.70;99.50
43043;DHT22;28667;50.758;6.096;2023-07-09T07:04:52;25.80;99.20
43043;DHT22;28667;50.758;6.096;2023-07-09T07:07:18;25.90;99.20
43043;DHT22;28667;50.758;6.096;2023-07-09T07:09:44;26.00;98.90
43043;DHT22;28667;50.758;6.096;2023-07-09T07:12:12;26.10;98.70
43043;DHT22;28667;50.758;6.096;2023-07-09T07:14:38;26.20;98.80
43043;DHT22;28667;50.758;6.096;2023-07-09T07:17:04;26.30;98.60
43043;DHT22;28667;50.758;6.096;2023-07-09T07:19:30;26.40;98.30
43043;DHT22;28667;50.758;6.096;2023-07-09T07:21:55;26.60;98.10
43043;DHT22;28667;50.758;6.096;2023-07-09T07:24:21;26.70;98.00
43043;DHT22;28667;50.758;6.096;2023-07-09T07:26:47;26.70;97.40
43043;DHT22;28667;50.758;6.096;2023-07-09T07:29:13;26.80;97.10
43043;DHT22;28667;50.758;6.096;2023-07-09T07:31:38;26.90;96.90
43043;DHT22;28667;50.758;6.096;2023-07-09T07:34:04;27.10;96.60
43043;DHT22;28667;50.758;6.096;2023-07-09T07:36:30;27.10;96.60
43043;DHT22;28667;50.758;6.096;2023-07-09T07:38:55;27.20;95.90
43043;DHT22;28667;50.758;6.096;2023-07-09T07:41:21;27.20;95.90
43043;DHT22;28667;50.758;6.096;2023-07-09T07:43:47;27.30;96.10
43043;DHT22;28667;50.758;6.096;2023-07-09T07:46:12;27.30;95.90
43043;DHT22;28667;50.758;6.096;2023-07-09T07:48:38;27.50;95.70
43043;DHT22;28667;50.758;6.096;2023-07-09T07:51:04;27.50;95.30
43043;DHT22;28667;50.758;6.096;2023-07-09T07:53:30;27.70;94.90
43043;DHT22;28667;50.758;6.096;2023-07-09T07:55:57;27.70;94.80
43043;DHT22;28667;50.758;6.096;2023-07-09T07:58:23;27.80;94.80
43043;DHT22;28667;50.758;6.096;2023-07-09T08:00:49;27.90;94.80
43043;DHT22;28667;50.758;6.096;2023-07-09T08:03:14;27.90;94.80
43043;DHT22;28667;50.758;6.096;2023-07-09T08:05:40;28.00;95.00
43043;DHT22;28667;50.758;6.096;2023-07-09T08:08:06;28.10;94.70
43043;DHT22;28667;50.758;6.096;2023-07-09T08:10:32;28.10;94.40
43043;DHT22;28667;50.758;6.096;2023-07-09T08:12:57;28.20;94.50
43043;DHT22;28667;50.758;6.096;2023-07-09T08:15:24;28.30;94.00
43043;DHT22;28667;50.758;6.096;2023-07-09T08:17:50;28.40;93.50
43043;DHT22;28667;50.758;6.096;2023-07-09T08:20:16;28.50;93.60
43043;DHT22;28667;50.758;6.096;2023-07-09T08:22:43;28.50;93.20
43043;DHT22;28667;50.758;6.096;2023-07-09T08:25:09;28.70;93.30
43043;DHT22;28667;50.758;6.096;2023-07-09T08:27:35;28.70;93.50
43043;DHT22;28667;50.758;6.096;2023-07-09T08:30:00;28.80;93.50
43043;DHT22;28667;50.758;6.096;2023-07-09T08:32:26;28.80;93.30
43043;DHT22;28667;50.758;6.096;2023-07-09T08:34:54;28.90;92.90
43043;DHT22;28667;50.758;6.096;2023-07-09T08:37:20;29.00;93.00
43043;DHT22;28667;50.758;6.096;2023-07-09T08:39:46;29.10;92.90
43043;DHT22;28667;50.758;6.096;2023-07-09T08:42:16;29.30;92.20
43043;DHT22;28667;50.758;6.096;2023-07-09T08:47:47;29.70;91.30
43043;DHT22;28667;50.758;6.096;2023-07-09T08:52:58;29.60;90.60
43043;DHT22;28667;50.758;6.096;2023-07-09T08:55:28;29.70;90.10
43043;DHT22;28667;50.758;6.096;2023-07-09T08:58:10;29.80;90.00
43043;DHT22;28667;50.758;6.096;2023-07-09T09:00:56;30.10;88.60
43043;DHT22;28667;50.758;6.096;2023-07-09T09:03:40;30.10;89.20
43043;DHT22;28667;50.758;6.096;2023-07-09T09:06:19;30.20;88.70
43043;DHT22;28667;50.758;6.096;2023-07-09T09:12:49;30.30;88.00
43043;DHT22;28667;50.758;6.096;2023-07-09T09:14:42;30.60;87.20
43043;DHT22;28667;50.758;6.096;2023-07-09T09:17:19;30.60;87.30
43043;DHT22;28667;50.758;6.096;2023-07-09T09:19:52;30.60;85.70
43043;DHT22;28667;50.758;6.096;2023-07-09T09:22:22;30.60;86.30
43043;DHT22;28667;50.758;6.096;2023-07-09T09:27:36;30.70;85.70
43043;DHT22;28667;50.758;6.096;2023-07-09T09:30:04;30.80;84.90
43043;DHT22;28667;50.758;6.096;2023-07-09T09:32:39;30.90;84.70
43043;DHT22;28667;50.758;6.096;2023-07-09T09:35:16;30.90;85.30
43043;DHT22;28667;50.758;6.096;2023-07-09T09:37:51;31.00;84.40
43043;DHT22;28667;50.758;6.096;2023-07-09T09:40:18;31.10;83.40
43043;DHT22;28667;50.758;6.096;2023-07-09T09:42:48;31.20;82.20
43043;DHT22;28667;50.758;6.096;2023-07-09T09:45:17;31.30;80.40
43043;DHT22;28667;50.758;6.096;2023-07-09T09:47:47;31.40;79.50
43043;DHT22;28667;50.758;6.096;2023-07-09T09:50:18;31.50;80.00
43043;DHT22;28667;50.758;6.096;2023-07-09T09:52:45;31.60;79.50
43043;DHT22;28667;50.758;6.096;2023-07-09T09:55:23;31.60;78.90
43043;DHT22;28667;50.758;6.096;2023-07-09T09:57:51;31.70;78.40
43043;DHT22;28667;50.758;6.096;2023-07-09T10:00:18;31.70;78.10
43043;DHT22;28667;50.758;6.096;2023-07-09T10:02:45;31.90;78.20
43043;DHT22;28667;50.758;6.096;2023-07-09T10:05:18;31.90;77.80
43043;DHT22;28667;50.758;6.096;2023-07-09T10:08:08;32.00;76.30
43043;DHT22;28667;50.758;6.096;2023-07-09T10:10:35;32.10;76.50
43043;DHT22;28667;50.758;6.096;2023-07-09T10:13:26;32.20;76.20
43043;DHT22;28667;50.758;6.096;2023-07-09T10:16:24;32.20;77.10
43043;DHT22;28667;50.758;6.096;2023-07-09T10:22:00;32.30;76.90
43043;DHT22;28667;50.758;6.096;2023-07-09T10:27:22;32.50;76.20
43043;DHT22;28667;50.758;6.096;2023-07-09T10:32:56;32.70;73.90
43043;DHT22;28667;50.758;6.096;2023-07-09T10:40:36;33.10;73.60
43043;DHT22;28667;50.758;6.096;2023-07-09T10:43:05;33.30;73.50
43043;DHT22;28667;50.758;6.096;2023-07-09T10:45:40;33.60;71.90
43043;DHT22;28667;50.758;6.096;2023-07-09T10:48:53;33.70;71.10
43043;DHT22;28667;50.758;6.096;2023-07-09T10:51:00;33.70;70.40
43043;DHT22;28667;50.758;6.096;2023-07-09T10:53:50;33.70;71.50
43043;DHT22;28667;50.758;6.096;2023-07-09T10:56:25;33.80;71.80
43043;DHT22;28667;50.758;6.096;2023-07-09T11:01:45;34.10;70.80
43043;DHT22;28667;50.758;6.096;2023-07-09T11:04:27;34.10;71.30
43043;DHT22;28667;50.758;6.096;2023-07-09T11:06:56;34.20;70.80
43043;DHT22;28667;50.758;6.096;2023-07-09T11:09:32;34.30;69.10
43043;DHT22;28667;50.758;6.096;2023-07-09T11:12:19;34.50;68.30
43043;DHT22;28667;50.758;6.096;2023-07-09T11:15:09;34.80;66.60
43043;DHT22;28667;50.758;6.096;2023-07-09T11:17:40;34.80;68.00
43043;DHT22;28667;50.758;6.096;2023-07-09T11:20:18;34.90;66.60
43043;DHT22;28667;50.758;6.096;2023-07-09T11:22:52;35.10;67.10
43043;DHT22;28667;50.758;6.096;2023-07-09T11:25:40;35.20;66.70
43043;DHT22;28667;50.758;6.096;2023-07-09T11:28:07;35.20;67.70
43043;DHT22;28667;50.758;6.096;2023-07-09T11:30:50;35.10;68.10
43043;DHT22;28667;50.758;6.096;2023-07-09T11:33:29;35.20;67.80
43043;DHT22;28667;50.758;6.096;2023-07-09T11:36:25;35.30;68.00
43043;DHT22;28667;50.758;6.096;2023-07-09T11:38:52;35.40;66.60
43043;DHT22;28667;50.758;6.096;2023-07-09T11:44:03;35.50;66.40
43043;DHT22;28667;50.758;6.096;2023-07-09T11:46:30;35.60;66.90
43043;DHT22;28667;50.758;6.096;2023-07-09T11:48:58;35.70;66.30
43043;DHT22;28667;50.758;6.096;2023-07-09T11:51:44;35.70;66.10
43043;DHT22;28667;50.758;6.096;2023-07-09T11:54:14;35.70;65.80
43043;DHT22;28667;50.758;6.096;2023-07-09T11:56:39;35.60;65.70
43043;DHT22;28667;50.758;6.096;2023-07-09T11:59:05;35.50;65.50
43043;DHT22;28667;50.758;6.096;2023-07-09T12:01:43;35.40;65.60
43043;DHT22;28667;50.758;6.096;2023-07-09T12:04:17;35.40;64.80
43043;DHT22;28667;50.758;6.096;2023-07-09T12:06:44;35.30;65.70
43043;DHT22;28667;50.758;6.096;2023-07-09T12:09:16;35.30;66.30
43043;DHT22;28667;50.758;6.096;2023-07-09T12:11:47;35.10;65.80
43043;DHT22;28667;50.758;6.096;2023-07-09T12:14:17;35.00;66.30
43043;DHT22;28667;50.758;6.096;2023-07-09T12:16:45;34.80;66.40
43043;DHT22;28667;50.758;6.096;2023-07-09T12:19:13;34.60;66.40
43043;DHT22;28667;50.758;6.096;2023-07-09T12:21:42;34.50;66.70
43043;DHT22;28667;50.758;6.096;2023-07-09T12:26:51;34.30;67.60
43043;DHT22;28667;50.758;6.096;2023-07-09T12:29:17;34.20;68.20
43043;DHT22;28667;50.758;6.096;2023-07-09T12:31:43;34.20;68.00
43043;DHT22;28667;50.758;6.096;2023-07-09T12:34:13;34.10;68.50
43043;DHT22;28667;50.758;6.096;2023-07-09T12:36:45;34.20;68.20
43043;DHT22;28667;50.758;6.096;2023-07-09T12:39:12;34.20;67.90
43043;DHT22;28667;50.758;6.096;2023-07-09T12:41:43;34.10;71.30
43043;DHT22;28667;50.758;6.096;2023-07-09T12:44:18;33.80;72.60
43043;DHT22;28667;50.758;6.096;2023-07-09T12:46:45;33.70;73.80
43043;DHT22;28667;50.758;6.096;2023-07-09T12:49:27;33.50;74.40
43043;DHT22;28667;50.758;6.096;2023-07-09T12:51:55;33.40;75.00
43043;DHT22;28667;50.758;6.096;2023-07-09T12:54:21;33.20;75.20
43043;DHT22;28667;50.758;6.096;2023-07-09T12:56:51;33.10;74.70
43043;DHT22;28667;50.758;6.096;2023-07-09T12:59:36;32.90;75.00
43043;DHT22;28667;50.758;6.096;2023-07-09T13:02:19;32.80;75.40
43043;DHT22;28667;50.758;6.096;2023-07-09T13:04:46;32.50;74.50
43043;DHT22;28667;50.758;6.096;2023-07-09T13:09:51;32.20;76.40
43043;DHT22;28667;50.758;6.096;2023-07-09T13:12:17;32.00;77.30
43043;DHT22;28667;50.758;6.096;2023-07-09T13:14:52;31.60;78.50
43043;DHT22;28667;50.758;6.096;2023-07-09T13:17:18;31.30;79.60
43043;DHT22;28667;50.758;6.096;2023-07-09T13:19:44;31.00;80.40
43043;DHT22;28667;50.758;6.096;2023-07-09T13:22:15;30.80;81.00
43043;DHT22;28667;50.758;6.096;2023-07-09T13:24:41;30.60;81.20
43043;DHT22;28667;50.758;6.096;2023-07-09T13:27:11;30.50;81.70
43043;DHT22;28667;50.758;6.096;2023-07-09T13:29:37;30.30;82.10
43043;DHT22;28667;50.758;6.096;2023-07-09T13:32:12;30.20;82.80
43043;DHT22;28667;50.758;6.096;2023-07-09T13:34:39;29.90;84.70
43043;DHT22;28667;50.758;6.096;2023-07-09T13:37:09;29.60;86.70
43043;DHT22;28667;50.758;6.096;2023-07-09T13:39:37;29.40;88.50
43043;DHT22;28667;50.758;6.096;2023-07-09T13:42:05;29.00;90.00
43043;DHT22;28667;50.758;6.096;2023-07-09T13:44:32;28.60;91.10
43043;DHT22;28667;50.758;6.096;2023-07-09T13:46:58;28.30;92.50
43043;DHT22;28667;50.758;6.096;2023-07-09T13:49:26;28.00;94.40
43043;DHT22;28667;50.758;6.096;2023-07-09T13:51:56;27.40;96.00
43043;DHT22;28667;50.758;6.096;2023-07-09T13:54:26;26.80;99.70
43043;DHT22;28667;50.758;6.096;2023-07-09T13:56:52;26.20;99.90
43043;DHT22;28667;50.758;6.096;2023-07-09T13:59:20;25.70;99.90
43043;DHT22;28667;50.758;6.096;2023-07-09T14:01:48;25.30;99.90
43043;DHT22;28667;50.758;6.096;2023-07-09T14:04:16;24.50;99.90
43043;DHT22;28667;50.758;6.096;2023-07-09T14:06:43;23.70;99.90
43043;DHT22;28667;50.758;6.096;2023-07-09T14:09:12;23.00;99.90
43043;DHT22;28667;50.758;6.096;2023-07-09T14:11:45;22.70;99.90
43043;DHT22;28667;50.758;6.096;2023-07-09T14:14:17;22.50;99.90
43043;DHT22;28667;50.758;6.096;2023-07-09T14:16:44;22.50;99.90
43043;DHT22;28667;50.758;6.096;2023-07-09T14:19:14;22.60;99.90
43043;DHT22;28667;50.758;6.096;2023-07-09T14:21:40;22.70;99.90
43043;DHT22;28667;50.758;6.096;2023-07-09T14:26:48;23.00;99.90
43043;DHT22;28667;50.758;6.096;2023-07-09T14:29:14;23.10;99.90
43043;DHT22;28667;50.758;6.096;2023-07-09T14:31:40;23.30;99.90
43043;DHT22;28667;50.758;6.096;2023-07-09T14:34:24;23.40;99.90
43043;DHT22;28667;50.758;6.096;2023-07-09T14:36:54;23.50;99.90
43043;DHT22;28667;50.758;6.096;2023-07-09T14:39:21;23.50;99.90
43043;DHT22;28667;50.758;6.096;2023-07-09T14:41:48;23.60;99.90
43043;DHT22;28667;50.758;6.096;2023-07-09T14:44:24;23.60;99.90
43043;DHT22;28667;50.758;6.096;2023-07-09T14:46:52;23.70;99.90
43043;DHT22;28667;50.758;6.096;2023-07-09T14:49:18;23.70;99.90
43043;DHT22;28667;50.758;6.096;2023-07-09T14:51:45;23.80;99.90
43043;DHT22;28667;50.758;6.096;2023-07-09T14:54:19;23.80;99.90
43043;DHT22;28667;50.758;6.096;2023-07-09T14:56:47;23.90;99.90
43043;DHT22;28667;50.758;6.096;2023-07-09T14:59:13;23.90;99.90
43043;DHT22;28667;50.758;6.096;2023-07-09T15:01:39;23.90;99.90
43043;DHT22;28667;50.758;6.096;2023-07-09T15:06:50;23.90;99.90
43043;DHT22;28667;50.758;6.096;2023-07-09T15:09:20;23.90;99.90
43043;DHT22;28667;50.758;6.096;2023-07-09T15:11:49;24.00;99.90
43043;DHT22;28667;50.758;6.096;2023-07-09T15:14:15;24.10;99.90
43043;DHT22;28667;50.758;6.096;2023-07-09T15:16:41;24.20;99.90
43043;DHT22;28667;50.758;6.096;2023-07-09T15:19:14;24.20;99.90
43043;DHT22;28667;50.758;6.096;2023-07-09T15:21:40;24.30;99.90
43043;DHT22;28667;50.758;6.096;2023-07-09T15:24:11;24.40;99.90
43043;DHT22;28667;50.758;6.096;2023-07-09T15:26:39;24.40;99.90
43043;DHT22;28667;50.758;6.096;2023-07-09T15:29:04;24.30;99.90
43043;DHT22;28667;50.758;6.096;2023-07-09T15:31:30;24.40;99.90
43043;DHT22;28667;50.758;6.096;2023-07-09T15:33:56;24.40;99.90
43043;DHT22;28667;50.758;6.096;2023-07-09T15:36:22;24.40;99.90
43043;DHT22;28667;50.758;6.096;2023-07-09T15:38:47;24.40;99.90
43043;DHT22;28667;50.758;6.096;2023-07-09T15:41:14;24.50;99.90
43043;DHT22;28667;50.758;6.096;2023-07-09T15:43:43;24.70;99.90
43043;DHT22;28667;50.758;6.096;2023-07-09T15:46:16;25.00;99.90
43043;DHT22;28667;50.758;6.096;2023-07-09T15:48:44;25.20;99.90
43043;DHT22;28667;50.758;6.096;2023-07-09T15:51:10;25.40;99.90
43043;DHT22;28667;50.758;6.096;2023-07-09T15:53:36;25.70;99.90
43043;DHT22;28667;50.758;6.096;2023-07-09T15:56:11;25.80;99.90
43043;DHT22;28667;50.758;6.096;2023-07-09T15:58:39;26.10;99.90
43043;DHT22;28667;50.758;6.096;2023-07-09T16:01:05;26.30;99.90
43043;DHT22;28667;50.758;6.096;2023-07-09T16:03:32;26.40;99.90
43043;DHT22;28667;50.758;6.096;2023-07-09T16:05:58;26.40;99.90
43043;DHT22;28667;50.758;6.096;2023-07-09T16:08:24;26.30;99.90
43043;DHT22;28667;50.758;6.096;2023-07-09T16:10:50;26.30;99.90
43043;DHT22;28667;50.758;6.096;2023-07-09T16:13:26;26.40;99.90
43043;DHT22;28667;50.758;6.096;2023-07-09T16:15:52;26.50;99.90
43043;DHT22;28667;50.758;6.096;2023-07-09T16:18:18;26.70;99.90
43043;DHT22;28667;50.758;6.096;2023-07-09T16:20:44;26.70;99.90
43043;DHT22;28667;50.758;6.096;2023-07-09T16:23:18;26.60;99.90
43043;DHT22;28667;50.758;6.096;2023-07-09T16:25:44;26.60;99.90